createdAt,value
2022-12-16T00:01:28.818Z,99573.44
2022-12-16T00:03:30.781Z,99568.91
2022-12-16T00:05:32.664Z,99565.22
2022-12-16T00:07:34.743Z,99567.06
2022-12-16T00:09:36.874Z,99578.81
2022-12-16T00:11:39.757Z,99574.06
2022-12-16T00:13:41.505Z,99578.28
2022-12-16T00:15:48.837Z,99585.41
2022-12-16T00:17:50.410Z,99587.59
2022-12-16T00:19:53.344Z,99586.56
2022-12-16T00:21:54.952Z,99585.53
2022-12-16T00:23:57.097Z,99588.41
2022-12-16T00:25:59.212Z,99589.78
2022-12-16T00:28:02.144Z,99594.03
2022-12-16T00:30:04.462Z,99595.91
2022-12-16T00:32:06.123Z,99599.84
2022-12-16T00:34:07.734Z,99608.75
2022-12-16T00:36:09.829Z,99596.63
2022-12-16T00:38:11.454Z,99598.81
2022-12-16T00:40:13.105Z,99600.06
2022-12-16T00:42:14.779Z,99601.09
2022-12-16T00:44:17.678Z,99604.84
2022-12-16T00:46:19.271Z,99614.31
2022-12-16T00:48:21.246Z,99609.47
2022-12-16T00:50:22.918Z,99611.25
2022-12-16T00:52:24.492Z,99626.72
2022-12-16T00:54:26.348Z,99619.94
2022-12-16T00:56:27.930Z,99619.34
2022-12-16T00:58:29.476Z,99632.16
2022-12-16T01:00:32.412Z,99626.59
2022-12-16T01:02:34.005Z,99631.59
2022-12-16T01:04:35.576Z,99632.16
2022-12-16T01:06:37.197Z,99629.19
2022-12-16T01:08:38.793Z,99627.56
2022-12-16T01:10:40.323Z,99633.19
2022-12-16T01:12:41.888Z,99633.06
2022-12-16T01:14:43.417Z,99640.78
2022-12-16T01:16:46.368Z,99636.88
2022-12-16T01:18:48.077Z,99639.41
2022-12-16T01:20:49.623Z,99640.69
2022-12-16T01:22:51.162Z,99642.31
2022-12-16T01:24:53.855Z,99643.94
2022-12-16T01:26:56.805Z,99647.13
2022-12-16T01:28:58.369Z,99647.84
2022-12-16T01:31:01.053Z,99652.03
2022-12-16T01:33:03.976Z,99651.22
2022-12-16T01:35:18.072Z,99657.34
2022-12-16T01:37:27.766Z,99655.16
2022-12-16T01:39:29.284Z,99654.69
2022-12-16T01:41:30.844Z,99654.91
2022-12-16T01:43:35.886Z,99653.44
2022-12-16T01:45:38.362Z,99651.50
2022-12-16T01:47:39.953Z,99660.84
2022-12-16T01:49:45.427Z,99653.34
2022-12-16T01:51:52.449Z,99647.47
2022-12-16T01:54:00.865Z,99645.06
2022-12-16T01:56:03.503Z,99641.00
2022-12-16T01:58:09.191Z,99636.28
2022-12-16T02:00:11.743Z,99630.31
2022-12-16T02:02:14.693Z,99628.38
2022-12-16T02:04:16.516Z,99629.28
2022-12-16T02:06:19.946Z,99632.53
2022-12-16T02:08:21.512Z,99636.00
2022-12-16T02:10:33.697Z,99637.03
2022-12-16T02:12:43.959Z,99630.69
2022-12-16T02:15:13.059Z,99638.00
2022-12-16T02:17:22.298Z,99642.84
2022-12-16T02:19:47.343Z,99642.28
2022-12-16T02:21:57.186Z,99641.59
2022-12-16T02:24:30.676Z,99637.53
2022-12-16T02:27:07.851Z,99629.84
2022-12-16T02:29:32.443Z,99626.94
2022-12-16T02:31:40.552Z,99633.41
2022-12-16T02:33:58.981Z,99624.94
2022-12-16T02:36:11.643Z,99633.16
2022-12-16T02:38:22.225Z,99636.63
2022-12-16T02:40:33.357Z,99646.53
2022-12-16T02:42:42.003Z,99643.31
2022-12-16T02:44:53.190Z,99642.41
2022-12-16T02:46:56.672Z,99649.91
2022-12-16T02:49:07.844Z,99648.94
2022-12-16T02:51:10.039Z,99650.09
2022-12-16T02:53:12.421Z,99660.72
2022-12-16T02:55:14.930Z,99654.25
2022-12-16T02:57:53.633Z,99658.91
2022-12-16T03:00:02.937Z,99665.81
2022-12-16T03:02:13.806Z,99664.44
2022-12-16T03:04:21.677Z,99666.50
2022-12-16T03:06:25.247Z,99659.94
2022-12-16T03:08:35.427Z,99660.16
2022-12-16T03:10:42.228Z,99663.88
2022-12-16T03:12:46.021Z,99661.78
2022-12-16T03:14:52.236Z,99662.00
2022-12-16T03:16:54.897Z,99669.06
2022-12-16T03:19:01.873Z,99664.19
2022-12-16T03:21:06.569Z,99664.19
2022-12-16T03:23:12.706Z,99665.22
2022-12-16T03:25:15.737Z,99671.38
2022-12-16T03:27:24.714Z,99671.56
2022-12-16T03:29:33.705Z,99667.31
2022-12-16T03:31:41.103Z,99675.53
2022-12-16T03:33:48.580Z,99674.13
2022-12-16T03:35:57.728Z,99669.84
2022-12-16T03:38:04.062Z,99674.72
2022-12-16T03:40:09.208Z,99680.47
2022-12-16T03:42:12.741Z,99687.06
2022-12-16T03:44:14.568Z,99686.22
2022-12-16T03:46:17.792Z,99691.97
2022-12-16T03:48:23.739Z,99689.22
2022-12-16T03:50:29.767Z,99694.97
2022-12-16T03:52:33.092Z,99691.75
2022-12-16T03:54:34.806Z,99702.59
2022-12-16T03:56:36.620Z,99711.31
2022-12-16T03:58:38.403Z,99711.81
2022-12-16T04:00:43.203Z,99710.19
2022-12-16T04:02:45.365Z,99711.09
2022-12-16T04:04:49.523Z,99717.06
2022-12-16T04:06:51.229Z,99727.66
2022-12-16T04:08:54.350Z,99730.78
2022-12-16T04:10:56.111Z,99729.53
2022-12-16T04:12:57.870Z,99735.03
2022-12-16T04:14:59.816Z,99738.75
2022-12-16T04:17:01.914Z,99742.19
2022-12-16T04:19:03.762Z,99743.91
2022-12-16T04:21:06.018Z,99737.22
2022-12-16T04:23:10.515Z,99744.38
2022-12-16T04:25:16.986Z,99749.91
2022-12-16T04:27:18.741Z,99751.50
2022-12-16T04:29:20.545Z,99746.09
2022-12-16T04:31:28.278Z,99749.53
2022-12-16T04:33:31.006Z,99753.69
2022-12-16T04:35:33.253Z,99753.47
2022-12-16T04:37:35.393Z,99764.66
2022-12-16T04:39:37.305Z,99757.38
2022-12-16T04:41:40.564Z,99767.50
2022-12-16T04:43:44.268Z,99768.78
2022-12-16T04:45:47.615Z,99772.44
2022-12-16T04:47:52.735Z,99771.06
2022-12-16T04:49:57.383Z,99774.75
2022-12-16T04:51:59.347Z,99777.75
2022-12-16T04:54:01.195Z,99776.97
2022-12-16T04:56:04.788Z,99778.34
2022-12-16T04:58:08.195Z,99777.31
2022-12-16T05:00:11.007Z,99776.47
2022-12-16T05:02:12.963Z,99782.25
2022-12-16T05:04:15.103Z,99784.66
2022-12-16T05:06:17.380Z,99786.06
2022-12-16T05:08:19.572Z,99789.53
2022-12-16T05:10:21.876Z,99791.94
2022-12-16T05:12:24.146Z,99797.69
2022-12-16T05:14:27.485Z,99798.50
2022-12-16T05:16:31.880Z,99806.47
2022-12-16T05:18:33.690Z,99804.94
2022-12-16T05:20:35.458Z,99816.19
2022-12-16T05:22:37.351Z,99823.91
2022-12-16T05:24:39.003Z,99819.44
2022-12-16T05:26:40.727Z,99820.03
2022-12-16T05:28:42.522Z,99829.00
2022-12-16T05:30:46.603Z,99828.53
2022-12-16T05:32:49.024Z,99835.53
2022-12-16T05:34:50.872Z,99835.75
2022-12-16T05:36:53.296Z,99835.75
2022-12-16T05:38:55.236Z,99845.19
2022-12-16T05:40:57.102Z,99850.88
2022-12-16T05:42:58.905Z,99850.03
2022-12-16T05:45:00.765Z,99850.88
2022-12-16T05:47:04.222Z,99850.88
2022-12-16T05:49:06.176Z,99859.03
2022-12-16T05:51:07.850Z,99857.28
2022-12-16T05:53:12.820Z,99862.78
2022-12-16T05:55:14.650Z,99864.25
2022-12-16T05:57:16.576Z,99873.31
2022-12-16T05:59:18.324Z,99879.03
2022-12-16T06:01:20.135Z,99883.88
2022-12-16T06:03:24.009Z,99891.66
2022-12-16T06:05:26.962Z,99890.88
2022-12-16T06:07:28.706Z,99893.56
2022-12-16T06:09:30.964Z,99897.50
2022-12-16T06:11:32.659Z,99899.94
2022-12-16T06:13:43.450Z,99898.94
2022-12-16T06:15:45.848Z,99895.03
2022-12-16T06:17:49.284Z,99907.06
2022-12-16T06:19:52.580Z,99913.56
2022-12-16T06:21:54.292Z,99905.63
2022-12-16T06:23:58.059Z,99914.56
2022-12-16T06:25:59.858Z,99922.53
2022-12-16T06:28:01.750Z,99924.94
2022-12-16T06:30:04.346Z,99928.56
2022-12-16T06:32:13.519Z,99932.03
2022-12-16T06:34:15.758Z,99936.72
2022-12-16T06:36:20.407Z,99933.66
2022-12-16T06:38:25.058Z,99935.03
2022-12-16T06:40:26.801Z,99950.72
2022-12-16T06:42:28.750Z,99949.97
2022-12-16T06:44:31.079Z,99947.97
2022-12-16T06:46:32.975Z,99954.72
2022-12-16T06:48:34.776Z,99951.63
2022-12-16T06:50:42.946Z,99964.28
2022-12-16T06:52:47.930Z,99971.84
2022-12-16T06:54:49.927Z,99966.91
2022-12-16T06:57:13.686Z,99977.50
2022-12-16T06:59:19.247Z,99979.50
2022-12-16T07:01:21.187Z,99978.53
2022-12-16T07:03:22.980Z,99987.06
2022-12-16T07:05:32.231Z,99977.72
2022-12-16T07:07:36.906Z,99987.13
2022-12-16T07:09:39.989Z,99996.47
2022-12-16T07:11:41.824Z,99993.22
2022-12-16T07:13:44.482Z,99991.00
2022-12-16T07:15:46.791Z,99998.16
2022-12-16T07:17:48.677Z,100004.25
2022-12-16T07:19:50.329Z,100004.66
2022-12-16T07:21:52.032Z,100003.63
2022-12-16T07:23:56.955Z,100004.66
2022-12-16T07:26:00.172Z,100014.44
2022-12-16T07:28:01.925Z,100017.28
2022-12-16T07:30:06.976Z,100012.44
2022-12-16T07:32:09.258Z,100019.75
2022-12-16T07:34:11.128Z,100021.00
2022-12-16T07:36:12.897Z,100027.47
2022-12-16T07:38:17.865Z,100027.88
2022-12-16T07:40:19.776Z,100030.53
2022-12-16T07:42:23.367Z,100035.81
2022-12-16T07:44:25.137Z,100042.16
2022-12-16T07:46:27.018Z,100038.91
2022-12-16T07:48:31.130Z,100042.97
2022-12-16T07:50:32.898Z,100044.16
2022-12-16T07:52:34.694Z,100051.69
2022-12-16T07:54:36.602Z,100052.78
2022-12-16T07:56:39.604Z,100061.50
2022-12-16T07:58:45.641Z,100051.16
2022-12-16T08:00:47.411Z,100061.50
2022-12-16T08:02:53.418Z,100063.53
2022-12-16T08:04:57.679Z,100072.44
2022-12-16T08:07:13.247Z,100067.56
2022-12-16T08:09:17.242Z,100072.88
2022-12-16T08:11:19.016Z,100081.59
2022-12-16T08:13:25.849Z,100079.94
2022-12-16T08:15:29.449Z,100086.66
2022-12-16T08:17:31.272Z,100087.31
2022-12-16T08:19:33.192Z,100089.31
2022-12-16T08:21:35.178Z,100090.78
2022-12-16T08:23:37.079Z,100094.22
2022-12-16T08:25:38.876Z,100095.03
2022-12-16T08:27:40.958Z,100102.72
2022-12-16T08:29:44.710Z,100108.03
2022-12-16T08:31:48.411Z,100106.03
2022-12-16T08:33:50.367Z,100107.19
2022-12-16T08:35:52.346Z,100108.41
2022-12-16T08:37:55.232Z,100107.38
2022-12-16T08:40:18.011Z,100111.06
2022-12-16T08:42:19.778Z,100120.41
2022-12-16T08:44:21.951Z,100122.63
2022-12-16T08:46:29.861Z,100129.94
2022-12-16T08:48:33.404Z,100120.97
2022-12-16T08:50:35.240Z,100129.53
2022-12-16T08:52:42.416Z,100136.59
2022-12-16T08:54:47.403Z,100136.41
2022-12-16T08:56:49.175Z,100141.47
2022-12-16T08:58:51.158Z,100157.59
2022-12-16T09:00:54.371Z,100159.25
2022-12-16T09:02:56.916Z,100156.00
2022-12-16T09:05:00.723Z,100158.19
2022-12-16T09:07:02.554Z,100160.44
2022-12-16T09:09:07.004Z,100163.03
2022-12-16T09:11:08.775Z,100162.81
2022-12-16T09:13:15.163Z,100164.84
2022-12-16T09:15:16.871Z,100178.47
2022-12-16T09:17:20.800Z,100180.91
2022-12-16T09:19:22.535Z,100183.56
2022-12-16T09:21:30.222Z,100182.53
2022-12-16T09:23:33.909Z,100183.34
2022-12-16T09:25:35.970Z,100188.03
2022-12-16T09:27:37.741Z,100184.75
2022-12-16T09:29:45.069Z,100187.16
2022-12-16T09:31:47.648Z,100187.53
2022-12-16T09:33:52.283Z,100183.84
2022-12-16T09:35:54.085Z,100188.31
2022-12-16T09:38:00.911Z,100194.19
2022-12-16T09:40:03.107Z,100194.00
2022-12-16T09:42:17.411Z,100194.38
2022-12-16T09:44:26.560Z,100189.69
2022-12-16T09:46:37.592Z,100198.00
2022-12-16T09:48:43.725Z,100196.94
2022-12-16T09:50:46.501Z,100195.31
2022-12-16T09:52:57.368Z,100184.44
2022-12-16T09:55:02.198Z,100187.25
2022-12-16T09:57:08.129Z,100191.97
2022-12-16T09:59:13.577Z,100195.22
2022-12-16T10:01:16.129Z,100197.63
2022-12-16T10:03:23.850Z,100205.75
2022-12-16T10:05:43.884Z,100196.97
2022-12-16T10:07:57.190Z,100201.03
2022-12-16T10:10:08.885Z,100204.28
2022-12-16T10:12:21.577Z,100194.28
2022-12-16T10:14:31.654Z,100196.88
2022-12-16T10:16:49.563Z,100203.16
2022-12-16T10:18:59.066Z,100201.09
2022-12-16T10:21:01.128Z,100203.09
2022-12-16T10:23:09.212Z,100206.94
2022-12-16T10:25:24.658Z,100205.25
2022-12-16T10:27:37.571Z,100206.94
2022-12-16T10:29:42.801Z,100198.75
2022-12-16T10:31:44.965Z,100206.06
2022-12-16T10:33:50.310Z,100196.19
2022-12-16T10:35:55.622Z,100206.78
2022-12-16T10:37:57.694Z,100206.38
2022-12-16T10:40:00.799Z,100201.81
2022-12-16T10:42:09.272Z,100206.00
2022-12-16T10:44:19.898Z,100207.19
2022-12-16T10:46:27.743Z,100192.81
2022-12-16T10:48:32.851Z,100207.19
2022-12-16T10:50:34.827Z,100210.22
2022-12-16T10:52:44.453Z,100209.69
2022-12-16T10:54:52.114Z,100204.59
2022-12-16T10:57:06.636Z,100215.03
2022-12-16T10:59:11.823Z,100207.94
2022-12-16T11:01:26.892Z,100211.38
2022-12-16T11:03:31.050Z,100219.56
2022-12-16T11:05:36.729Z,100216.94
2022-12-16T11:07:40.016Z,100222.66
2022-12-16T11:09:41.814Z,100213.75
2022-12-16T11:11:43.580Z,100207.84
2022-12-16T11:13:45.532Z,100215.19
2022-12-16T11:16:07.533Z,100218.91
2022-12-16T11:18:16.880Z,100219.66
2022-12-16T11:20:21.581Z,100222.09
2022-12-16T11:22:24.255Z,100220.22
2022-12-16T11:24:26.270Z,100227.63
2022-12-16T11:26:33.110Z,100223.03
2022-12-16T11:28:37.890Z,100214.84
2022-12-16T11:30:39.799Z,100222.19
2022-12-16T11:32:49.447Z,100220.94
2022-12-16T11:34:55.689Z,100216.41
2022-12-16T11:36:58.036Z,100223.94
2022-12-16T11:39:00.358Z,100221.50
2022-12-16T11:41:03.680Z,100222.31
2022-12-16T11:43:12.861Z,100230.53
2022-12-16T11:45:20.496Z,100228.31
2022-12-16T11:47:34.811Z,100231.44
2022-12-16T11:49:38.435Z,100230.50
2022-12-16T11:51:41.639Z,100234.31
2022-12-16T11:53:51.202Z,100241.84
2022-12-16T11:56:06.583Z,100236.59
2022-12-16T11:58:20.304Z,100242.34
2022-12-16T12:00:22.392Z,100234.47
2022-12-16T12:02:31.790Z,100239.91
2022-12-16T12:04:33.969Z,100247.91
2022-12-16T12:07:00.005Z,100245.34
2022-12-16T12:09:11.318Z,100249.28
2022-12-16T12:11:20.823Z,100238.63
2022-12-16T12:13:46.079Z,100250.09
2022-12-16T12:15:56.122Z,100246.84
2022-12-16T12:18:05.584Z,100245.56
2022-12-16T12:20:30.795Z,100251.78
2022-12-16T12:22:35.827Z,100252.97
2022-12-16T12:24:47.717Z,100261.53
2022-12-16T12:26:58.156Z,100259.22
2022-12-16T12:29:10.096Z,100258.66
2022-12-16T12:31:27.607Z,100266.75
2022-12-16T12:33:37.936Z,100272.66
2022-12-16T12:35:53.833Z,100279.38
2022-12-16T12:38:03.675Z,100267.94
2022-12-16T12:40:25.624Z,100278.47
2022-12-16T12:42:38.483Z,100272.09
2022-12-16T12:44:49.554Z,100273.94
2022-12-16T12:46:57.336Z,100282.50
2022-12-16T12:49:07.240Z,100290.84
2022-12-16T12:51:21.554Z,100294.91
2022-12-16T12:53:36.618Z,100285.03
2022-12-16T12:55:43.637Z,100296.41
2022-12-16T12:57:49.798Z,100293.84
2022-12-16T13:00:02.228Z,100297.66
2022-12-16T13:02:16.150Z,100308.91
2022-12-16T13:06:39.170Z,100306.34
2022-12-16T13:08:53.840Z,100307.50
2022-12-16T13:11:12.709Z,100304.38
2022-12-16T13:13:36.318Z,100303.09
2022-12-16T13:15:42.031Z,100315.13
2022-12-16T13:18:32.664Z,100310.41
2022-12-16T13:20:38.335Z,100305.66
2022-12-16T13:22:43.097Z,100315.38
2022-12-16T13:25:33.180Z,100313.28
2022-12-16T13:27:53.153Z,100316.66
2022-12-16T13:30:02.770Z,100316.66
2022-12-16T13:32:20.058Z,100317.22
2022-12-16T13:34:28.040Z,100324.41
2022-12-16T13:36:34.738Z,100328.81
2022-12-16T13:38:44.648Z,100327.06
2022-12-16T13:40:54.490Z,100337.03
2022-12-16T13:42:56.247Z,100332.72
2022-12-16T13:44:59.520Z,100334.00
2022-12-16T13:47:01.584Z,100339.31
2022-12-16T13:49:36.777Z,100348.03
2022-12-16T13:52:02.534Z,100352.78
2022-12-16T13:54:13.803Z,100348.03
2022-12-16T13:56:20.686Z,100346.63
2022-12-16T13:58:36.485Z,100349.53
2022-12-16T14:00:41.614Z,100358.13
2022-12-16T14:02:44.014Z,100359.72
2022-12-16T14:04:51.055Z,100361.59
2022-12-16T14:06:53.562Z,100361.00
2022-12-16T14:08:58.011Z,100363.91
2022-12-16T14:11:03.763Z,100362.28
2022-12-16T14:13:15.646Z,100368.78
2022-12-16T14:15:31.347Z,100370.03
2022-12-16T14:17:45.221Z,100382.09
2022-12-16T14:19:58.748Z,100381.53
2022-12-16T14:22:21.937Z,100388.94
2022-12-16T14:24:27.108Z,100395.66
2022-12-16T14:26:34.850Z,100391.13
2022-12-16T14:28:41.963Z,100394.84
2022-12-16T14:30:45.117Z,100407.34
2022-12-16T14:32:47.168Z,100406.31
2022-12-16T14:35:02.013Z,100407.34
2022-12-16T14:37:12.860Z,100411.03
2022-12-16T14:39:27.865Z,100410.13
2022-12-16T14:41:32.631Z,100420.56
2022-12-16T14:43:36.297Z,100415.69
2022-12-16T14:45:39.875Z,100420.56
2022-12-16T14:47:41.724Z,100426.47
2022-12-16T14:49:53.043Z,100428.06
2022-12-16T14:52:00.794Z,100437.34
2022-12-16T14:54:35.035Z,100440.84
2022-12-16T14:56:37.242Z,100446.88
2022-12-16T14:59:05.833Z,100447.75
2022-12-16T15:01:34.841Z,100463.75
2022-12-16T15:03:40.854Z,100465.78
2022-12-16T15:05:49.920Z,100461.56
2022-12-16T15:07:52.007Z,100462.84
2022-12-16T15:09:57.832Z,100462.75
2022-12-16T15:12:00.151Z,100462.34
2022-12-16T15:14:05.797Z,100474.19
2022-12-16T15:16:17.679Z,100470.72
2022-12-16T15:18:32.141Z,100469.44
2022-12-16T15:20:37.300Z,100469.00
2022-12-16T15:22:53.460Z,100475.38
2022-12-16T15:24:58.354Z,100475.53
2022-12-16T15:27:16.434Z,100476.44
2022-12-16T15:29:29.973Z,100488.50
2022-12-16T15:31:38.789Z,100496.00
2022-12-16T15:33:46.695Z,100489.44
2022-12-16T15:35:50.352Z,100498.47
2022-12-16T15:37:52.299Z,100501.13
2022-12-16T15:39:58.509Z,100507.59
2022-12-16T15:42:02.543Z,100516.66
2022-12-16T15:44:13.745Z,100515.59
2022-12-16T15:46:22.699Z,100515.84
2022-12-16T15:48:27.456Z,100527.50
2022-12-16T15:50:33.564Z,100530.06
2022-12-16T15:52:40.208Z,100522.34
2022-12-16T15:54:55.369Z,100527.03
2022-12-16T15:57:00.371Z,100534.78
2022-12-16T15:59:22.769Z,100530.88
2022-12-16T16:01:39.274Z,100535.19
2022-12-16T16:03:52.528Z,100540.50
2022-12-16T16:05:59.357Z,100543.72
2022-12-16T16:08:03.821Z,100539.66
2022-12-16T16:10:25.176Z,100549.50
2022-12-16T16:12:41.773Z,100546.63
2022-12-16T16:14:43.712Z,100555.19
2022-12-16T16:16:47.912Z,100552.19
2022-12-16T16:18:49.780Z,100560.16
2022-12-16T16:20:56.513Z,100567.38
2022-12-16T16:23:09.714Z,100563.09
2022-12-16T16:25:18.036Z,100564.72
2022-12-16T16:27:22.643Z,100568.06
2022-12-16T16:29:25.006Z,100563.16
2022-12-16T16:31:29.898Z,100566.41
2022-12-16T16:33:32.455Z,100564.88
2022-12-16T16:35:35.183Z,100571.69
2022-12-16T16:37:38.891Z,100566.50
2022-12-16T16:39:44.155Z,100566.28
2022-12-16T16:41:47.698Z,100577.53
2022-12-16T16:43:49.881Z,100576.34
2022-12-16T16:45:54.689Z,100578.81
2022-12-16T16:48:05.368Z,100581.78
2022-12-16T16:50:07.240Z,100580.81
2022-12-16T16:52:14.079Z,100592.47
2022-12-16T16:54:17.434Z,100601.53
2022-12-16T16:56:20.310Z,100601.13
2022-12-16T16:58:27.394Z,100607.03
2022-12-16T17:00:30.264Z,100612.34
2022-12-16T17:02:36.031Z,100620.94
2022-12-16T17:04:40.766Z,100621.19
2022-12-16T17:06:44.015Z,100618.75
2022-12-16T17:08:45.841Z,100626.59
2022-12-16T17:10:48.993Z,100622.06
2022-12-16T17:12:50.720Z,100636.00
2022-12-16T17:14:52.458Z,100634.63
2022-12-16T17:16:54.695Z,100633.78
2022-12-16T17:18:56.474Z,100638.28
2022-12-16T17:20:58.252Z,100631.72
2022-12-16T17:23:00.473Z,100634.75
2022-12-16T17:25:02.559Z,100631.13
2022-12-16T17:27:14.546Z,100639.88
2022-12-16T17:29:21.010Z,100632.72
2022-12-16T17:31:22.694Z,100642.09
2022-12-16T17:33:24.904Z,100640.03
2022-12-16T17:35:26.639Z,100647.16
2022-12-16T17:37:28.390Z,100648.97
2022-12-16T17:39:30.300Z,100656.59
2022-12-16T17:41:32.953Z,100649.63
2022-12-16T17:43:36.765Z,100656.59
2022-12-16T17:45:41.379Z,100649.03
2022-12-16T17:47:43.238Z,100655.38
2022-12-16T17:49:45.141Z,100656.88
2022-12-16T17:51:46.862Z,100661.19
2022-12-16T17:53:48.959Z,100661.41
2022-12-16T17:55:50.694Z,100668.34
2022-12-16T17:57:52.526Z,100673.88
2022-12-16T17:59:56.077Z,100680.66
2022-12-16T18:01:57.867Z,100680.09
2022-12-16T18:03:59.936Z,100673.56
2022-12-16T18:06:01.751Z,100672.94
2022-12-16T18:08:03.812Z,100673.56
2022-12-16T18:10:06.477Z,100679.88
2022-12-16T18:12:08.187Z,100686.47
2022-12-16T18:14:09.982Z,100684.03
2022-12-16T18:16:13.388Z,100691.84
2022-12-16T18:18:15.515Z,100699.03
2022-12-16T18:20:17.610Z,100702.91
2022-12-16T18:22:19.327Z,100697.59
2022-12-16T18:24:21.491Z,100701.28
2022-12-16T18:26:24.795Z,100701.94
2022-12-16T18:28:30.791Z,100702.91
2022-12-16T18:30:32.623Z,100706.44
2022-12-16T18:32:35.758Z,100709.94
2022-12-16T18:34:37.460Z,100709.09
2022-12-16T18:36:41.315Z,100712.16
2022-12-16T18:38:50.163Z,100716.06
2022-12-16T18:41:01.622Z,100720.13
2022-12-16T18:43:03.357Z,100730.56
2022-12-16T18:45:08.808Z,100726.28
2022-12-16T18:47:13.455Z,100732.03
2022-12-16T18:49:18.068Z,100738.38
2022-12-16T18:51:20.078Z,100734.25
2022-12-16T18:53:22.061Z,100739.16
2022-12-16T18:55:24.173Z,100742.69
2022-12-16T18:57:25.947Z,100741.28
2022-12-16T18:59:30.056Z,100746.53
2022-12-16T19:01:31.941Z,100748.19
2022-12-16T19:03:34.105Z,100759.41
2022-12-16T19:05:37.512Z,100750.00
2022-12-16T19:07:42.430Z,100759.22
2022-12-16T19:09:46.414Z,100756.13
2022-12-16T19:11:56.994Z,100758.63
2022-12-16T19:14:07.893Z,100768.78
2022-12-16T19:16:11.768Z,100766.75
2022-12-16T19:18:14.804Z,100773.69
2022-12-16T19:20:16.682Z,100772.06
2022-12-16T19:22:20.331Z,100776.34
2022-12-16T19:24:22.128Z,100771.88
2022-12-16T19:26:24.490Z,100783.72
2022-12-16T19:28:28.675Z,100789.47
2022-12-16T19:30:35.997Z,100791.53
2022-12-16T19:32:38.196Z,100803.38
2022-12-16T19:34:41.636Z,100808.06
2022-12-16T19:36:48.185Z,100809.09
2022-12-16T19:38:53.369Z,100804.78
2022-12-16T19:40:59.195Z,100806.84
2022-12-16T19:43:01.231Z,100811.97
2022-12-16T19:45:03.266Z,100812.38
2022-12-16T19:47:05.224Z,100817.47
2022-12-16T19:49:06.995Z,100814.41
2022-12-16T19:51:09.580Z,100822.19
2022-12-16T19:53:12.445Z,100824.25
2022-12-16T19:55:17.654Z,100832.19
2022-12-16T19:57:37.882Z,100833.22
2022-12-16T19:59:39.913Z,100837.50
2022-12-16T20:01:41.837Z,100838.94
2022-12-16T20:03:46.465Z,100839.94
2022-12-16T20:06:02.503Z,100842.38
2022-12-16T20:08:04.573Z,100844.25
2022-12-16T20:10:07.421Z,100842.81
2022-12-16T20:12:12.970Z,100853.84
2022-12-16T20:14:14.751Z,100848.53
2022-12-16T20:16:16.905Z,100845.88
2022-12-16T20:18:23.473Z,100860.38
2022-12-16T20:20:25.288Z,100858.50
2022-12-16T20:22:29.316Z,100858.13
2022-12-16T20:24:31.182Z,100852.00
2022-12-16T20:26:32.939Z,100859.56
2022-12-16T20:28:36.292Z,100864.25
2022-12-16T20:30:39.061Z,100871.97
2022-12-16T20:32:40.918Z,100873.00
2022-12-16T20:34:42.704Z,100864.41
2022-12-16T20:36:44.426Z,100867.69
2022-12-16T20:38:48.314Z,100864.84
2022-12-16T20:40:56.333Z,100876.88
2022-12-16T20:42:58.062Z,100888.72
2022-12-16T20:45:02.383Z,100880.97
2022-12-16T20:47:04.306Z,100886.66
2022-12-16T20:49:06.103Z,100890.34
2022-12-16T20:51:09.416Z,100885.25
2022-12-16T20:53:11.169Z,100894.44
2022-12-16T20:55:16.044Z,100898.91
2022-12-16T20:57:18.007Z,100896.69
2022-12-16T20:59:19.895Z,100903.00
2022-12-16T21:01:23.148Z,100905.44
2022-12-16T21:03:25.266Z,100900.53
2022-12-16T21:05:29.733Z,100904.19
2022-12-16T21:07:31.590Z,100911.97
2022-12-16T21:09:33.381Z,100904.41
2022-12-16T21:11:35.185Z,100913.63
2022-12-16T21:13:37.151Z,100922.16
2022-12-16T21:15:41.892Z,100923.00
2022-12-16T21:17:45.080Z,100922.00
2022-12-16T21:19:46.857Z,100923.22
2022-12-16T21:21:48.475Z,100926.88
2022-12-16T21:23:50.204Z,100927.91
2022-12-16T21:25:52.188Z,100925.25
2022-12-16T21:27:57.144Z,100929.94
2022-12-16T21:30:01.412Z,100933.81
2022-12-16T21:32:03.668Z,100932.19
2022-12-16T21:34:06.971Z,100933.19
2022-12-16T21:36:08.961Z,100940.31
2022-12-16T21:38:12.982Z,100944.63
2022-12-16T21:40:14.967Z,100939.53
2022-12-16T21:42:16.757Z,100952.59
2022-12-16T21:44:18.661Z,100954.22
2022-12-16T21:46:20.373Z,100957.50
2022-12-16T21:48:22.224Z,100963.44
2022-12-16T21:50:25.734Z,100966.47
2022-12-16T21:52:27.838Z,100966.06
2022-12-16T21:54:29.490Z,100974.19
2022-12-16T21:56:31.241Z,100977.44
2022-12-16T21:58:33.148Z,100978.47
2022-12-16T22:00:35.101Z,100976.81
2022-12-16T22:02:37.113Z,100976.00
2022-12-16T22:04:38.854Z,100974.34
2022-12-16T22:06:48.310Z,100982.09
2022-12-16T22:08:51.717Z,100985.38
2022-12-16T22:10:54.099Z,100990.06
2022-12-16T22:12:59.273Z,100993.69
2022-12-16T22:15:01.040Z,100993.31
2022-12-16T22:17:02.897Z,101002.31
2022-12-16T22:19:05.034Z,101011.03
2022-12-16T22:21:06.871Z,101006.94
2022-12-16T22:23:10.805Z,101013.25
2022-12-16T22:25:14.517Z,101016.31
2022-12-16T22:27:16.634Z,101023.22
2022-12-16T22:29:20.111Z,101025.84
2022-12-16T22:31:22.086Z,101028.75
2022-12-16T22:33:23.874Z,101039.53
2022-12-16T22:35:25.680Z,101040.00
2022-12-16T22:37:27.435Z,101046.69
2022-12-16T22:39:30.850Z,101046.44
2022-12-16T22:41:32.674Z,101054.97
2022-12-16T22:43:34.917Z,101046.44
2022-12-16T22:45:36.858Z,101048.25
2022-12-16T22:47:38.714Z,101057.78
2022-12-16T22:49:40.662Z,101055.09
2022-12-16T22:51:42.417Z,101056.63
2022-12-16T22:53:44.733Z,101059.47
2022-12-16T22:56:02.271Z,101062.75
2022-12-16T22:58:07.186Z,101062.56
2022-12-16T23:00:10.213Z,101068.50
2022-12-16T23:02:12.136Z,101070.75
2022-12-16T23:04:14.223Z,101072.78
2022-12-16T23:06:16.003Z,101074.16
2022-12-16T23:08:17.914Z,101082.25
2022-12-16T23:10:19.805Z,101079.34
2022-12-16T23:12:23.352Z,101080.38
2022-12-16T23:14:25.256Z,101079.25
2022-12-16T23:16:27.216Z,101088.78
2022-12-16T23:18:29.005Z,101094.44
2022-12-16T23:20:33.795Z,101099.47
2022-12-16T23:22:35.653Z,101090.53
2022-12-16T23:24:37.460Z,101097.31
2022-12-16T23:26:39.135Z,101098.53
2022-12-16T23:28:42.485Z,101097.25
2022-12-16T23:30:52.048Z,101102.19
2022-12-16T23:32:57.271Z,101096.66
2022-12-16T23:34:59.156Z,101085.38
2022-12-16T23:37:00.803Z,101093.06
2022-12-16T23:39:02.530Z,101093.25
2022-12-16T23:41:04.424Z,101089.41
2022-12-16T23:43:06.255Z,101101.06
2022-12-16T23:45:13.270Z,101097.78
2022-12-16T23:47:15.022Z,101098.91
2022-12-16T23:49:16.731Z,101101.13
2022-12-16T23:51:18.485Z,101114.56
2022-12-16T23:53:20.273Z,101110.84
2022-12-16T23:55:22.011Z,101115.50
2022-12-16T23:57:24.047Z,101113.28
2022-12-16T23:59:25.806Z,101121.13
